createdAt,value
2018-01-16T00:00:45.987Z,0
2018-01-16T00:02:07.849Z,0
2018-01-16T00:03:29.801Z,0
2018-01-16T00:04:51.681Z,0
2018-01-16T00:06:13.034Z,0
2018-01-16T00:07:34.637Z,0
2018-01-16T00:08:56.245Z,0
2018-01-16T00:10:18.118Z,0
2018-01-16T00:11:40.048Z,0
2018-01-16T00:13:02.033Z,0
2018-01-16T00:14:23.637Z,0
2018-01-16T00:15:45.229Z,0
2018-01-16T00:17:06.845Z,0
2018-01-16T00:18:28.741Z,0
2018-01-16T00:19:50.469Z,0
2018-01-16T00:21:12.593Z,0
2018-01-16T00:22:34.554Z,0
2018-01-16T00:23:56.133Z,0
2018-01-16T00:25:18.253Z,0
2018-01-16T00:26:39.579Z,0
2018-01-16T00:28:01.194Z,0
2018-01-16T00:29:23.308Z,0
2018-01-16T00:30:44.455Z,0
2018-01-16T00:32:06.319Z,0
2018-01-16T00:33:28.168Z,0
2018-01-16T00:34:49.874Z,0
2018-01-16T00:36:11.209Z,0
2018-01-16T00:37:32.894Z,0
2018-01-16T00:38:54.491Z,0
2018-01-16T00:40:16.106Z,0
2018-01-16T00:41:37.687Z,0
2018-01-16T00:42:59.410Z,0
2018-01-16T00:44:21.543Z,0
2018-01-16T00:45:43.399Z,0
2018-01-16T00:47:05.297Z,0
2018-01-16T00:48:27.169Z,0
2018-01-16T00:49:49.171Z,0
2018-01-16T00:51:11.136Z,0
2018-01-16T00:52:32.750Z,0
2018-01-16T00:53:53.832Z,0
2018-01-16T00:55:15.690Z,0
2018-01-16T00:56:37.827Z,0
2018-01-16T00:57:59.797Z,0
2018-01-16T00:59:21.181Z,0
2018-01-16T01:00:43.161Z,0
2018-01-16T01:02:05.005Z,0
2018-01-16T01:03:27.132Z,0
2018-01-16T01:04:48.980Z,0
2018-01-16T01:06:10.309Z,0
2018-01-16T01:07:31.681Z,0
2018-01-16T01:08:53.707Z,0
2018-01-16T01:10:15.560Z,0
2018-01-16T01:11:37.434Z,0
2018-01-16T01:12:58.506Z,0
2018-01-16T01:14:20.354Z,0
2018-01-16T01:15:42.473Z,0
2018-01-16T01:17:04.591Z,0
2018-01-16T01:18:26.232Z,0
2018-01-16T01:19:48.470Z,0
2018-01-16T01:21:09.805Z,0
2018-01-16T01:22:31.718Z,0
2018-01-16T01:23:53.842Z,0
2018-01-16T01:25:15.598Z,0
2018-01-16T01:26:37.551Z,0
2018-01-16T01:27:59.198Z,0
2018-01-16T01:29:21.080Z,0
2018-01-16T01:30:43.202Z,0
2018-01-16T01:32:04.784Z,0
2018-01-16T01:33:26.383Z,0
2018-01-16T01:34:47.969Z,0
2018-01-16T01:36:09.817Z,0
2018-01-16T01:37:31.723Z,0
2018-01-16T01:38:53.849Z,0
2018-01-16T01:40:15.994Z,0
2018-01-16T01:41:37.979Z,0
2018-01-16T01:43:00.106Z,0
2018-01-16T01:44:22.003Z,0
2018-01-16T01:45:43.579Z,0
2018-01-16T01:47:05.189Z,0
2018-01-16T01:48:27.268Z,0
2018-01-16T01:49:49.373Z,0
2018-01-16T01:51:10.977Z,0
2018-01-16T01:52:32.557Z,0
2018-01-16T01:53:54.240Z,0
2018-01-16T01:55:16.176Z,0
2018-01-16T01:56:38.180Z,0
2018-01-16T01:58:00.174Z,0
2018-01-16T01:59:22.083Z,0
2018-01-16T02:00:43.693Z,0
2018-01-16T02:02:05.280Z,0
2018-01-16T02:03:26.872Z,0
2018-01-16T02:04:48.720Z,0
2018-01-16T02:06:10.674Z,0
2018-01-16T02:07:32.543Z,0
2018-01-16T02:08:54.968Z,0
2018-01-16T02:10:16.806Z,0
2018-01-16T02:11:38.642Z,0
2018-01-16T02:13:00.517Z,0
2018-01-16T02:14:22.382Z,0
2018-01-16T02:15:44.226Z,0
2018-01-16T02:17:06.099Z,0
2018-01-16T02:18:27.957Z,0
2018-01-16T02:19:49.033Z,0
2018-01-16T02:21:10.447Z,0
2018-01-16T02:22:32.044Z,0
2018-01-16T02:23:53.375Z,0
2018-01-16T02:25:15.534Z,0
2018-01-16T02:26:37.116Z,0
2018-01-16T02:27:59.045Z,0
2018-01-16T02:29:20.909Z,0
2018-01-16T02:30:43.033Z,0
2018-01-16T02:32:04.104Z,0
2018-01-16T02:33:25.693Z,0
2018-01-16T02:34:47.802Z,0
2018-01-16T02:36:09.361Z,0
2018-01-16T02:37:30.961Z,0
2018-01-16T02:38:53.192Z,0
2018-01-16T02:40:14.545Z,0
2018-01-16T02:41:36.415Z,0
2018-01-16T02:42:58.053Z,0
2018-01-16T02:44:20.021Z,0
2018-01-16T02:45:42.214Z,0
2018-01-16T02:47:04.078Z,0
2018-01-16T02:48:25.413Z,0
2018-01-16T02:49:47.058Z,0
2018-01-16T02:51:08.914Z,0
2018-01-16T02:52:30.478Z,0
2018-01-16T02:53:52.047Z,0
2018-01-16T02:55:14.162Z,0
2018-01-16T02:56:36.263Z,0
2018-01-16T02:57:58.389Z,0
2018-01-16T02:59:20.240Z,0
2018-01-16T03:00:42.092Z,0
2018-01-16T03:02:03.686Z,0
2018-01-16T03:03:26.156Z,0
2018-01-16T03:04:47.744Z,0
2018-01-16T03:06:09.363Z,0
2018-01-16T03:07:31.220Z,0
2018-01-16T03:08:53.075Z,0
2018-01-16T03:10:14.933Z,0
2018-01-16T03:11:37.053Z,0
2018-01-16T03:12:59.180Z,0
2018-01-16T03:14:21.315Z,0
2018-01-16T03:15:42.924Z,0
2018-01-16T03:17:04.777Z,0
2018-01-16T03:18:26.920Z,0
2018-01-16T03:19:49.087Z,0
2018-01-16T03:21:11.033Z,0
2018-01-16T03:22:32.903Z,0
2018-01-16T03:23:54.612Z,0
2018-01-16T03:25:16.226Z,0
2018-01-16T03:26:38.064Z,0
2018-01-16T03:27:59.663Z,0
2018-01-16T03:29:21.365Z,0
2018-01-16T03:30:43.234Z,0
2018-01-16T03:32:04.665Z,0
2018-01-16T03:33:26.495Z,0
2018-01-16T03:34:48.108Z,0
2018-01-16T03:36:09.423Z,0
2018-01-16T03:37:30.810Z,0
2018-01-16T03:38:52.199Z,0
2018-01-16T03:40:14.318Z,0
2018-01-16T03:41:35.922Z,0
2018-01-16T03:42:58.020Z,0
2018-01-16T03:44:19.870Z,0
2018-01-16T03:45:41.470Z,0
2018-01-16T03:47:03.326Z,0
2018-01-16T03:48:25.225Z,0
2018-01-16T03:49:46.884Z,0
2018-01-16T03:51:08.614Z,0
2018-01-16T03:52:31.188Z,0
2018-01-16T03:53:53.164Z,0
2018-01-16T03:55:15.026Z,0
2018-01-16T03:56:36.694Z,0
2018-01-16T03:57:58.745Z,0
2018-01-16T03:59:20.880Z,0
2018-01-16T04:00:43.103Z,0
2018-01-16T04:02:04.934Z,0
2018-01-16T04:03:26.518Z,0
2018-01-16T04:04:48.857Z,0
2018-01-16T04:06:11.083Z,0
2018-01-16T04:07:33.243Z,0
2018-01-16T04:08:55.207Z,0
2018-01-16T04:10:17.072Z,0
2018-01-16T04:11:38.984Z,0
2018-01-16T04:13:01.095Z,0
2018-01-16T04:14:22.993Z,0
2018-01-16T04:15:45.000Z,0
2018-01-16T04:17:06.904Z,0
2018-01-16T04:18:28.853Z,0
2018-01-16T04:19:50.788Z,0
2018-01-16T04:21:12.742Z,0
2018-01-16T04:22:34.584Z,0
2018-01-16T04:23:56.472Z,0
2018-01-16T04:25:18.328Z,0
2018-01-16T04:26:40.265Z,0
2018-01-16T04:28:01.599Z,0
2018-01-16T04:29:23.226Z,0
2018-01-16T04:30:45.095Z,0
2018-01-16T04:32:06.676Z,0
2018-01-16T04:33:28.533Z,0
2018-01-16T04:34:50.405Z,0
2018-01-16T04:36:12.266Z,0
2018-01-16T04:37:34.392Z,0
2018-01-16T04:38:55.986Z,0
2018-01-16T04:40:17.603Z,0
2018-01-16T04:41:39.692Z,0
2018-01-16T04:43:01.077Z,0
2018-01-16T04:44:22.429Z,0
2018-01-16T04:45:43.791Z,0
2018-01-16T04:47:05.629Z,0
2018-01-16T04:48:27.213Z,0
2018-01-16T04:49:49.172Z,0
2018-01-16T04:51:10.753Z,0
2018-01-16T04:52:32.354Z,0
2018-01-16T04:53:54.202Z,0
2018-01-16T04:55:16.064Z,0
2018-01-16T04:56:37.910Z,0
2018-01-16T04:57:59.759Z,0
2018-01-16T04:59:21.088Z,0
2018-01-16T05:00:42.692Z,0
2018-01-16T05:02:04.527Z,0
2018-01-16T05:03:26.132Z,0
2018-01-16T05:04:48.068Z,0
2018-01-16T05:06:09.677Z,0
2018-01-16T05:07:31.527Z,0
2018-01-16T05:08:53.386Z,0
2018-01-16T05:10:15.066Z,0
2018-01-16T05:11:37.160Z,0
2018-01-16T05:12:59.211Z,0
2018-01-16T05:14:21.407Z,0
2018-01-16T05:15:43.276Z,0
2018-01-16T05:17:04.870Z,0
2018-01-16T05:18:26.896Z,0
2018-01-16T05:19:48.531Z,0
2018-01-16T05:21:10.132Z,0
2018-01-16T05:22:31.993Z,0
2018-01-16T05:23:53.859Z,0
2018-01-16T05:25:15.681Z,0
2018-01-16T05:26:37.411Z,0
2018-01-16T05:27:59.204Z,0
2018-01-16T05:29:20.793Z,0
2018-01-16T05:30:43.091Z,0
2018-01-16T05:32:05.002Z,0
2018-01-16T05:33:27.228Z,0
2018-01-16T05:34:49.094Z,0
2018-01-16T05:36:10.453Z,0
2018-01-16T05:37:31.543Z,0
2018-01-16T05:38:53.149Z,0
2018-01-16T05:40:15.287Z,0
2018-01-16T05:41:37.158Z,0
2018-01-16T05:42:59.128Z,0
2018-01-16T05:44:21.229Z,0
2018-01-16T05:45:42.811Z,0
2018-01-16T05:47:04.692Z,0
2018-01-16T05:48:26.291Z,0
2018-01-16T05:49:48.444Z,0
2018-01-16T05:51:09.886Z,0
2018-01-16T05:52:31.766Z,0
2018-01-16T05:53:53.124Z,0
2018-01-16T05:55:15.227Z,0
2018-01-16T05:56:37.516Z,0
2018-01-16T05:57:59.439Z,0
2018-01-16T05:59:21.301Z,0
2018-01-16T06:00:43.531Z,0
2018-01-16T06:02:05.679Z,0
2018-01-16T06:03:27.351Z,0
2018-01-16T06:04:48.947Z,0
2018-01-16T06:06:10.561Z,0
2018-01-16T06:07:32.664Z,0
2018-01-16T06:08:54.810Z,0
2018-01-16T06:10:16.942Z,0
2018-01-16T06:11:39.082Z,0
2018-01-16T06:13:01.280Z,0
2018-01-16T06:14:23.551Z,0
2018-01-16T06:15:45.131Z,0
2018-01-16T06:17:06.804Z,0
2018-01-16T06:18:28.921Z,0
2018-01-16T06:19:50.858Z,0
2018-01-16T06:21:12.729Z,0
2018-01-16T06:22:34.360Z,0
2018-01-16T06:23:55.941Z,0
2018-01-16T06:25:17.955Z,0
2018-01-16T06:26:40.093Z,0
2018-01-16T06:28:02.263Z,0
2018-01-16T06:29:23.855Z,0
2018-01-16T06:30:45.444Z,0
2018-01-16T06:32:07.589Z,0
2018-01-16T06:33:29.471Z,0
2018-01-16T06:34:51.441Z,0
2018-01-16T06:36:13.140Z,0
2018-01-16T06:37:35.321Z,0
2018-01-16T06:38:57.434Z,0
2018-01-16T06:40:19.467Z,0
2018-01-16T06:41:41.512Z,0
2018-01-16T06:43:03.106Z,0
2018-01-16T06:44:25.285Z,0
2018-01-16T06:45:47.455Z,0
2018-01-16T06:47:09.562Z,0
2018-01-16T06:48:31.769Z,0
2018-01-16T06:49:53.635Z,0
2018-01-16T06:51:15.755Z,0
2018-01-16T06:52:37.407Z,0
2018-01-16T06:53:59.263Z,0
2018-01-16T06:55:21.574Z,0
2018-01-16T06:56:43.311Z,0
2018-01-16T06:58:05.052Z,0
2018-01-16T06:59:26.940Z,0
2018-01-16T07:00:49.185Z,0
2018-01-16T07:02:10.767Z,0
2018-01-16T07:03:32.374Z,0
2018-01-16T07:04:53.972Z,0
2018-01-16T07:06:15.707Z,0
2018-01-16T07:07:37.337Z,0
2018-01-16T07:08:59.283Z,0
2018-01-16T07:10:21.005Z,0
2018-01-16T07:11:42.406Z,0
2018-01-16T07:13:04.273Z,0
2018-01-16T07:14:26.391Z,0
2018-01-16T07:15:47.773Z,0
2018-01-16T07:17:09.963Z,0
2018-01-16T07:18:32.080Z,0
2018-01-16T07:19:54.176Z,0
2018-01-16T07:21:16.017Z,0
2018-01-16T07:22:38.174Z,0
2018-01-16T07:23:59.873Z,0
2018-01-16T07:25:21.537Z,0
2018-01-16T07:26:43.236Z,0
2018-01-16T07:28:04.852Z,0
2018-01-16T07:29:26.981Z,0
2018-01-16T07:30:49.412Z,0
2018-01-16T07:32:11.601Z,0
2018-01-16T07:33:33.715Z,0
2018-01-16T07:34:55.850Z,0
2018-01-16T07:36:17.968Z,0
2018-01-16T07:37:39.905Z,0
2018-01-16T07:39:01.593Z,0
2018-01-16T07:40:23.269Z,0
2018-01-16T07:41:44.924Z,0
2018-01-16T07:43:06.981Z,5
2018-01-16T07:44:29.117Z,5
2018-01-16T07:45:51.088Z,5
2018-01-16T07:47:13.305Z,5
2018-01-16T07:48:34.945Z,5
2018-01-16T07:49:56.842Z,5
2018-01-16T07:51:19.184Z,5
2018-01-16T07:52:40.761Z,5
2018-01-16T07:54:02.684Z,5
2018-01-16T07:55:24.662Z,5
2018-01-16T07:56:46.299Z,5
2018-01-16T07:58:07.892Z,5
2018-01-16T07:59:30.000Z,5
2018-01-16T08:00:51.601Z,5
2018-01-16T08:02:13.327Z,5
2018-01-16T08:03:35.222Z,5
2018-01-16T08:04:57.367Z,5
2018-01-16T08:06:19.313Z,10
2018-01-16T08:07:41.581Z,10
2018-01-16T08:09:03.465Z,10
2018-01-16T08:10:25.589Z,15
2018-01-16T08:11:47.524Z,30
2018-01-16T08:13:09.744Z,35
2018-01-16T08:14:31.673Z,35
2018-01-16T08:15:53.504Z,30
2018-01-16T08:17:15.387Z,25
2018-01-16T08:18:37.289Z,15
2018-01-16T08:19:59.391Z,5
2018-01-16T08:21:21.375Z,5
2018-01-16T08:22:43.267Z,5
2018-01-16T08:24:04.772Z,0
2018-01-16T08:25:26.909Z,0
2018-01-16T08:26:48.848Z,0
2018-01-16T08:28:10.752Z,5
2018-01-16T08:29:32.609Z,5
2018-01-16T08:30:54.551Z,10
2018-01-16T08:32:16.473Z,20
2018-01-16T08:33:38.343Z,30
2018-01-16T08:35:00.620Z,35
2018-01-16T08:36:22.483Z,35
2018-01-16T08:37:44.230Z,40
2018-01-16T08:39:06.187Z,45
2018-01-16T08:40:28.062Z,45
2018-01-16T08:41:49.647Z,45
2018-01-16T08:43:11.237Z,40
2018-01-16T08:44:33.373Z,40
2018-01-16T08:45:55.253Z,45
2018-01-16T08:47:17.162Z,40
2018-01-16T08:48:39.272Z,35
2018-01-16T08:50:00.959Z,40
2018-01-16T08:51:22.870Z,40
2018-01-16T08:52:44.490Z,50
2018-01-16T08:54:06.231Z,70
2018-01-16T08:55:27.825Z,80
2018-01-16T08:56:49.430Z,100
2018-01-16T08:58:11.569Z,110
2018-01-16T08:59:33.280Z,110
2018-01-16T09:00:54.978Z,110
2018-01-16T09:02:16.848Z,105
2018-01-16T09:03:38.756Z,110
2018-01-16T09:05:00.379Z,115
2018-01-16T09:06:22.506Z,120
2018-01-16T09:07:44.109Z,120
2018-01-16T09:09:05.969Z,100
2018-01-16T09:10:27.581Z,85
2018-01-16T09:11:49.015Z,80
2018-01-16T09:13:11.141Z,80
2018-01-16T09:14:33.334Z,80
2018-01-16T09:15:55.535Z,90
2018-01-16T09:17:17.642Z,95
2018-01-16T09:18:39.240Z,95
2018-01-16T09:20:00.589Z,100
2018-01-16T09:21:22.177Z,105
2018-01-16T09:22:44.321Z,105
2018-01-16T09:24:06.520Z,100
2018-01-16T09:25:28.110Z,95
2018-01-16T09:26:50.005Z,85
2018-01-16T09:28:11.866Z,80
2018-01-16T09:29:34.042Z,85
2018-01-16T09:30:55.701Z,80
2018-01-16T09:32:17.659Z,75
2018-01-16T09:33:39.843Z,65
2018-01-16T09:35:01.455Z,60
2018-01-16T09:36:23.626Z,60
2018-01-16T09:37:45.483Z,55
2018-01-16T09:39:07.623Z,60
2018-01-16T09:40:29.683Z,65
2018-01-16T09:41:51.805Z,65
2018-01-16T09:43:13.737Z,75
2018-01-16T09:44:35.725Z,65
2018-01-16T09:45:57.584Z,55
2018-01-16T09:47:19.440Z,55
2018-01-16T09:48:41.345Z,75
2018-01-16T09:50:03.530Z,85
2018-01-16T09:51:25.652Z,80
2018-01-16T09:52:47.606Z,80
2018-01-16T09:54:09.471Z,80
2018-01-16T09:55:31.059Z,85
2018-01-16T09:56:53.183Z,90
2018-01-16T09:58:14.779Z,95
2018-01-16T09:59:36.648Z,105
2018-01-16T10:00:58.583Z,125
2018-01-16T10:02:20.261Z,130
2018-01-16T10:03:42.068Z,90
2018-01-16T10:05:03.704Z,90
2018-01-16T10:06:25.657Z,90
2018-01-16T10:07:47.310Z,85
2018-01-16T10:09:08.649Z,90
2018-01-16T10:10:30.244Z,100
2018-01-16T10:11:52.143Z,100
2018-01-16T10:13:13.886Z,100
2018-01-16T10:14:35.496Z,85
2018-01-16T10:15:57.390Z,75
2018-01-16T10:17:19.380Z,60
2018-01-16T10:18:41.495Z,65
2018-01-16T10:20:03.415Z,80
2018-01-16T10:21:25.581Z,90
2018-01-16T10:22:47.437Z,105
2018-01-16T10:24:08.941Z,105
2018-01-16T10:25:31.100Z,115
2018-01-16T10:26:52.458Z,130
2018-01-16T10:28:14.345Z,150
2018-01-16T10:29:36.360Z,160
2018-01-16T10:30:58.466Z,160
2018-01-16T10:32:20.311Z,155
2018-01-16T10:33:42.281Z,140
2018-01-16T10:35:03.989Z,125
2018-01-16T10:36:25.848Z,120
2018-01-16T10:37:47.198Z,125
2018-01-16T10:39:08.629Z,125
2018-01-16T10:40:30.755Z,120
2018-01-16T10:41:52.539Z,120
2018-01-16T10:43:14.708Z,120
2018-01-16T10:44:36.044Z,110
2018-01-16T10:45:57.986Z,110
2018-01-16T10:47:20.019Z,115
2018-01-16T10:48:41.909Z,105
2018-01-16T10:50:04.019Z,75
2018-01-16T10:51:25.875Z,60
2018-01-16T10:52:48.090Z,70
2018-01-16T10:54:10.092Z,85
2018-01-16T10:55:31.983Z,70
2018-01-16T10:56:53.877Z,65
2018-01-16T10:58:15.643Z,75
2018-01-16T10:59:36.998Z,100
2018-01-16T11:00:58.916Z,80
2018-01-16T11:02:20.493Z,65
2018-01-16T11:03:41.860Z,65
2018-01-16T11:05:03.977Z,70
2018-01-16T11:06:25.838Z,85
2018-01-16T11:07:47.866Z,95
2018-01-16T11:09:09.548Z,80
2018-01-16T11:10:30.916Z,75
2018-01-16T11:11:52.779Z,65
2018-01-16T11:13:14.913Z,75
2018-01-16T11:14:37.057Z,80
2018-01-16T11:15:59.172Z,75
2018-01-16T11:17:20.599Z,60
2018-01-16T11:18:42.490Z,65
2018-01-16T11:20:04.359Z,75
2018-01-16T11:21:26.259Z,80
2018-01-16T11:22:48.364Z,80
2018-01-16T11:24:10.677Z,70
2018-01-16T11:25:32.294Z,60
2018-01-16T11:26:54.486Z,60
2018-01-16T11:28:16.648Z,60
2018-01-16T11:29:38.519Z,60
2018-01-16T11:30:59.679Z,60
2018-01-16T11:32:21.285Z,55
2018-01-16T11:33:43.472Z,40
2018-01-16T11:35:05.098Z,35
2018-01-16T11:36:26.947Z,30
2018-01-16T11:37:48.599Z,30
2018-01-16T11:39:10.256Z,35
2018-01-16T11:40:31.866Z,30
2018-01-16T11:41:54.141Z,20
2018-01-16T11:43:16.042Z,15
2018-01-16T11:44:38.203Z,20
2018-01-16T11:46:00.049Z,20
2018-01-16T11:47:21.806Z,25
2018-01-16T11:48:43.771Z,45
2018-01-16T11:50:05.912Z,45
2018-01-16T11:51:28.126Z,50
2018-01-16T11:52:49.996Z,50
2018-01-16T11:54:11.905Z,65
2018-01-16T11:55:33.549Z,95
2018-01-16T11:56:55.839Z,115
2018-01-16T11:58:17.878Z,120
2018-01-16T11:59:39.871Z,125
2018-01-16T12:01:02.098Z,120
2018-01-16T12:02:23.781Z,115
2018-01-16T12:03:45.649Z,110
2018-01-16T12:05:07.492Z,100
2018-01-16T12:06:29.121Z,100
2018-01-16T12:07:51.455Z,100
2018-01-16T12:09:13.606Z,95
2018-01-16T12:10:35.649Z,90
2018-01-16T12:11:57.943Z,95
2018-01-16T12:13:19.815Z,85
2018-01-16T12:14:41.197Z,95
2018-01-16T12:16:02.794Z,95
2018-01-16T12:17:24.719Z,100
2018-01-16T12:18:46.591Z,105
2018-01-16T12:20:08.220Z,95
2018-01-16T12:21:30.093Z,85
2018-01-16T12:22:51.966Z,55
2018-01-16T12:24:14.060Z,55
2018-01-16T12:25:36.023Z,50
2018-01-16T12:26:58.000Z,45
2018-01-16T12:28:20.233Z,45
2018-01-16T12:29:42.339Z,50
2018-01-16T12:31:04.556Z,65
2018-01-16T12:32:26.677Z,90
2018-01-16T12:33:48.619Z,95
2018-01-16T12:35:10.739Z,105
2018-01-16T12:36:32.915Z,100
2018-01-16T12:37:54.529Z,70
2018-01-16T12:39:16.648Z,95
2018-01-16T12:40:38.332Z,105
2018-01-16T12:42:00.525Z,110
2018-01-16T12:43:22.132Z,115
2018-01-16T12:44:44.360Z,115
2018-01-16T12:46:06.581Z,115
2018-01-16T12:47:28.428Z,110
2018-01-16T12:48:50.138Z,90
2018-01-16T12:50:12.285Z,85
2018-01-16T12:51:34.452Z,95
2018-01-16T12:52:56.360Z,100
2018-01-16T12:54:18.500Z,90
2018-01-16T12:55:40.704Z,105
2018-01-16T12:57:02.582Z,125
2018-01-16T12:58:24.718Z,135
2018-01-16T12:59:46.711Z,140
2018-01-16T13:01:08.838Z,140
2018-01-16T13:02:30.958Z,130
2018-01-16T13:03:52.812Z,120
2018-01-16T13:05:14.702Z,120
2018-01-16T13:06:36.686Z,115
2018-01-16T13:07:58.603Z,105
2018-01-16T13:09:20.477Z,110
2018-01-16T13:10:42.374Z,115
2018-01-16T13:12:04.554Z,120
2018-01-16T13:13:26.429Z,120
2018-01-16T13:14:48.644Z,100
2018-01-16T13:16:10.539Z,95
2018-01-16T13:17:32.781Z,85
2018-01-16T13:18:54.125Z,95
2018-01-16T13:20:15.733Z,110
2018-01-16T13:21:37.653Z,105
2018-01-16T13:22:59.791Z,90
2018-01-16T13:24:21.969Z,95
2018-01-16T13:25:43.857Z,80
2018-01-16T13:27:05.741Z,60
2018-01-16T13:28:27.954Z,40
2018-01-16T13:29:49.804Z,35
2018-01-16T13:31:11.977Z,30
2018-01-16T13:32:34.215Z,25
2018-01-16T13:33:55.951Z,25
2018-01-16T13:35:17.392Z,15
2018-01-16T13:36:39.531Z,15
2018-01-16T13:38:00.957Z,15
2018-01-16T13:39:22.852Z,20
2018-01-16T13:40:44.720Z,25
2018-01-16T13:42:06.559Z,35
2018-01-16T13:43:28.677Z,55
2018-01-16T13:44:50.430Z,95
2018-01-16T13:46:12.351Z,155
2018-01-16T13:47:34.476Z,165
2018-01-16T13:48:56.604Z,155
2018-01-16T13:50:18.208Z,150
2018-01-16T13:51:40.204Z,140
2018-01-16T13:53:02.410Z,135
2018-01-16T13:54:24.310Z,125
2018-01-16T13:55:46.465Z,110
2018-01-16T13:57:08.474Z,90
2018-01-16T13:58:30.494Z,100
2018-01-16T13:59:52.410Z,105
2018-01-16T14:01:14.571Z,105
2018-01-16T14:02:36.424Z,95
2018-01-16T14:03:58.056Z,80
2018-01-16T14:05:20.302Z,60
2018-01-16T14:06:42.432Z,45
2018-01-16T14:08:04.062Z,40
2018-01-16T14:09:25.556Z,25
2018-01-16T14:10:47.748Z,30
2018-01-16T14:12:09.622Z,30
2018-01-16T14:13:31.572Z,25
2018-01-16T14:14:53.228Z,30
2018-01-16T14:16:15.094Z,25
2018-01-16T14:17:36.479Z,30
2018-01-16T14:18:58.832Z,30
2018-01-16T14:20:21.046Z,40
2018-01-16T14:21:42.962Z,50
2018-01-16T14:23:04.972Z,60
2018-01-16T14:24:26.965Z,65
2018-01-16T14:25:49.389Z,60
2018-01-16T14:27:11.333Z,60
2018-01-16T14:28:33.372Z,45
2018-01-16T14:29:55.583Z,40
2018-01-16T14:31:17.479Z,40
2018-01-16T14:32:39.773Z,45
2018-01-16T14:34:01.906Z,45
2018-01-16T14:35:23.485Z,40
2018-01-16T14:36:45.592Z,40
2018-01-16T14:38:07.503Z,35
2018-01-16T14:39:29.649Z,35
2018-01-16T14:40:51.512Z,30
2018-01-16T14:42:13.499Z,25
2018-01-16T14:43:35.363Z,25
2018-01-16T14:44:57.242Z,25
2018-01-16T14:46:19.480Z,25
2018-01-16T14:47:41.601Z,20
2018-01-16T14:49:03.724Z,30
2018-01-16T14:50:25.325Z,30
2018-01-16T14:51:47.451Z,25
2018-01-16T14:53:09.504Z,20
2018-01-16T14:54:31.663Z,20
2018-01-16T14:55:53.584Z,20
2018-01-16T14:57:15.276Z,20
2018-01-16T14:58:37.435Z,20
2018-01-16T14:59:59.606Z,20
2018-01-16T15:01:21.774Z,15
2018-01-16T15:02:43.861Z,10
2018-01-16T15:04:06.152Z,10
2018-01-16T15:05:28.309Z,10
2018-01-16T15:06:49.765Z,5
2018-01-16T15:08:11.757Z,10
2018-01-16T15:09:33.924Z,10
2018-01-16T15:10:56.153Z,10
2018-01-16T15:12:17.799Z,10
2018-01-16T15:13:39.709Z,10
2018-01-16T15:15:01.573Z,10
2018-01-16T15:16:23.822Z,5
2018-01-16T15:17:45.713Z,5
2018-01-16T15:19:07.899Z,0
2018-01-16T15:20:29.790Z,0
2018-01-16T15:21:51.963Z,0
2018-01-16T15:23:14.185Z,0
2018-01-16T15:24:36.475Z,0
2018-01-16T15:25:58.613Z,0
2018-01-16T15:27:20.257Z,5
2018-01-16T15:28:41.884Z,5
2018-01-16T15:30:04.155Z,5
2018-01-16T15:31:26.488Z,5
2018-01-16T15:32:48.104Z,5
2018-01-16T15:34:09.992Z,5
2018-01-16T15:35:32.294Z,5
2018-01-16T15:36:54.026Z,5
2018-01-16T15:38:15.827Z,5
2018-01-16T15:39:37.817Z,5
2018-01-16T15:40:59.878Z,0
2018-01-16T15:42:22.127Z,0
2018-01-16T15:43:44.413Z,0
2018-01-16T15:45:06.388Z,0
2018-01-16T15:46:28.287Z,0
2018-01-16T15:47:50.335Z,0
2018-01-16T15:49:12.026Z,0
2018-01-16T15:50:34.297Z,0
2018-01-16T15:51:56.203Z,0
2018-01-16T15:53:18.428Z,0
2018-01-16T15:54:40.682Z,0
2018-01-16T15:56:02.505Z,0
2018-01-16T15:57:24.415Z,0
2018-01-16T15:58:46.570Z,0
2018-01-16T16:00:08.739Z,0
2018-01-16T16:01:30.609Z,0
2018-01-16T16:02:52.829Z,0
2018-01-16T16:04:14.777Z,0
2018-01-16T16:05:37.088Z,0
2018-01-16T16:06:59.247Z,0
2018-01-16T16:08:21.388Z,0
2018-01-16T16:09:43.492Z,0
2018-01-16T16:11:05.616Z,0
2018-01-16T16:12:27.504Z,0
2018-01-16T16:13:49.714Z,0
2018-01-16T16:15:11.875Z,0
2018-01-16T16:16:33.818Z,0
2018-01-16T16:17:55.700Z,0
2018-01-16T16:19:17.599Z,0
2018-01-16T16:20:39.842Z,0
2018-01-16T16:22:01.836Z,0
2018-01-16T16:23:23.982Z,0
2018-01-16T16:24:46.195Z,0
2018-01-16T16:26:08.125Z,0
2018-01-16T16:27:30.277Z,0
2018-01-16T16:28:52.454Z,0
2018-01-16T16:30:14.780Z,0
2018-01-16T16:31:37.061Z,0
2018-01-16T16:32:58.996Z,0
2018-01-16T16:34:20.441Z,0
2018-01-16T16:35:42.360Z,0
2018-01-16T16:37:04.541Z,0
2018-01-16T16:38:26.805Z,0
2018-01-16T16:39:48.673Z,0
2018-01-16T16:41:10.566Z,0
2018-01-16T16:42:32.354Z,0
2018-01-16T16:43:54.501Z,0
2018-01-16T16:45:16.122Z,0
2018-01-16T16:46:38.048Z,0
2018-01-16T16:47:59.791Z,0
2018-01-16T16:49:21.976Z,0
2018-01-16T16:50:43.572Z,0
2018-01-16T16:52:05.791Z,0
2018-01-16T16:53:27.990Z,0
2018-01-16T16:54:49.656Z,0
2018-01-16T16:56:11.538Z,0
2018-01-16T16:57:33.176Z,0
2018-01-16T16:58:55.335Z,0
2018-01-16T17:00:17.233Z,0
2018-01-16T17:01:39.270Z,0
2018-01-16T17:03:00.720Z,0
2018-01-16T17:04:22.657Z,0
2018-01-16T17:05:44.512Z,0
2018-01-16T17:07:06.719Z,0
2018-01-16T17:08:28.736Z,0
2018-01-16T17:09:50.380Z,0
2018-01-16T17:11:12.264Z,0
2018-01-16T17:12:34.503Z,0
2018-01-16T17:13:56.772Z,0
2018-01-16T17:15:18.939Z,0
2018-01-16T17:16:40.892Z,0
2018-01-16T17:18:03.051Z,0
2018-01-16T17:19:25.201Z,0
2018-01-16T17:20:47.478Z,0
2018-01-16T17:22:09.763Z,0
2018-01-16T17:23:31.416Z,0
2018-01-16T17:24:53.415Z,0
2018-01-16T17:26:15.541Z,0
2018-01-16T17:27:37.703Z,0
2018-01-16T17:28:59.590Z,0
2018-01-16T17:30:21.775Z,0
2018-01-16T17:31:43.716Z,0
2018-01-16T17:33:05.893Z,0
2018-01-16T17:34:27.589Z,0
2018-01-16T17:35:49.610Z,0
2018-01-16T17:37:11.836Z,0
2018-01-16T17:38:34.067Z,0
2018-01-16T17:39:55.965Z,0
2018-01-16T17:41:17.851Z,0
2018-01-16T17:42:40.020Z,0
2018-01-16T17:44:02.213Z,0
2018-01-16T17:45:24.133Z,0
2018-01-16T17:46:46.405Z,0
2018-01-16T17:48:08.581Z,0
2018-01-16T17:49:30.263Z,0
2018-01-16T17:50:51.959Z,0
2018-01-16T17:52:14.186Z,0
2018-01-16T17:53:36.089Z,0
2018-01-16T17:54:58.016Z,0
2018-01-16T17:56:20.181Z,0
2018-01-16T17:57:42.070Z,0
2018-01-16T17:59:04.483Z,0
2018-01-16T18:00:26.537Z,0
2018-01-16T18:01:48.217Z,0
2018-01-16T18:03:10.134Z,0
2018-01-16T18:04:32.121Z,0
2018-01-16T18:05:54.172Z,0
2018-01-16T18:07:16.061Z,0
2018-01-16T18:08:38.407Z,0
2018-01-16T18:10:00.703Z,0
2018-01-16T18:11:22.867Z,0
2018-01-16T18:12:45.210Z,0
2018-01-16T18:14:07.516Z,0
2018-01-16T18:15:29.855Z,0
2018-01-16T18:16:52.064Z,0
2018-01-16T18:18:14.286Z,0
2018-01-16T18:19:36.422Z,0
2018-01-16T18:20:58.101Z,0
2018-01-16T18:22:20.474Z,0
2018-01-16T18:23:42.621Z,0
2018-01-16T18:25:04.754Z,0
2018-01-16T18:26:26.701Z,0
2018-01-16T18:27:48.911Z,0
2018-01-16T18:29:10.922Z,0
2018-01-16T18:30:33.211Z,0
2018-01-16T18:31:54.844Z,0
2018-01-16T18:33:16.775Z,0
2018-01-16T18:34:38.413Z,0
2018-01-16T18:36:00.356Z,0
2018-01-16T18:37:22.543Z,0
2018-01-16T18:38:44.680Z,0
2018-01-16T18:40:06.670Z,0
2018-01-16T18:41:28.947Z,0
2018-01-16T18:42:51.113Z,0
2018-01-16T18:44:13.269Z,0
2018-01-16T18:45:35.192Z,0
2018-01-16T18:46:57.269Z,0
2018-01-16T18:48:19.558Z,0
2018-01-16T18:49:41.712Z,0
2018-01-16T18:51:03.578Z,0
2018-01-16T18:52:25.512Z,0
2018-01-16T18:53:47.855Z,0
2018-01-16T18:55:10.059Z,0
2018-01-16T18:56:32.218Z,0
2018-01-16T18:57:54.422Z,0
2018-01-16T18:59:16.704Z,0
2018-01-16T19:00:38.746Z,0
2018-01-16T19:02:00.953Z,0
2018-01-16T19:03:23.108Z,0
2018-01-16T19:04:45.417Z,0
2018-01-16T19:06:07.615Z,0
2018-01-16T19:07:29.802Z,0
2018-01-16T19:08:52.159Z,0
2018-01-16T19:10:14.138Z,0
2018-01-16T19:11:36.347Z,0
2018-01-16T19:12:58.489Z,0
2018-01-16T19:14:20.692Z,0
2018-01-16T19:15:42.912Z,0
2018-01-16T19:17:04.831Z,0
2018-01-16T19:18:26.795Z,0
2018-01-16T19:19:48.973Z,0
2018-01-16T19:21:11.260Z,0
2018-01-16T19:22:33.213Z,0
2018-01-16T19:23:55.350Z,0
2018-01-16T19:25:17.576Z,0
2018-01-16T19:26:39.839Z,0
2018-01-16T19:28:02.049Z,0
2018-01-16T19:29:24.263Z,0
2018-01-16T19:30:45.920Z,0
2018-01-16T19:32:08.167Z,0
2018-01-16T19:33:29.812Z,0
2018-01-16T19:34:51.833Z,0
2018-01-16T19:36:14.111Z,0
2018-01-16T19:37:36.065Z,0
2018-01-16T19:38:57.759Z,0
2018-01-16T19:40:20.029Z,0
2018-01-16T19:41:42.206Z,0
2018-01-16T19:43:04.397Z,0
2018-01-16T19:44:26.422Z,0
2018-01-16T19:45:48.133Z,0
2018-01-16T19:47:10.328Z,0
2018-01-16T19:48:32.326Z,0
2018-01-16T19:49:54.304Z,0
2018-01-16T19:51:16.274Z,0